Time;durP1;ratioP1;P1;durP2;ratioP2;P2;SDS_P1;SDS_P2;PMS_P1;PMS_P2;Temp;Humidity;BMP_temperature;BMP_pressure;BME280_temperature;BME280_humidity;BME280_pressure;Samples;Min_cycle;Max_cycle;Signal;HPM_P1;HPM_P2
2021/12/19 00:00:42;;;;;;;8.10;3.80;;;7.10;1.00;;;;;;5032903;28;20268;-72
2021/12/19 00:11:15;;;;;;;5.97;3.67;;;7.00;1.00;;;;;;5013128;28;20402;-71
2021/12/19 00:13:41;;;;;;;6.50;4.53;;;7.00;1.00;;;;;;5012482;28;20405;-71
2021/12/19 00:16:08;;;;;;;5.37;3.80;;;7.00;1.00;;;;;;5013100;28;20423;-71
2021/12/19 00:18:34;;;;;;;6.87;3.37;;;7.00;1.00;;;;;;5013224;28;20176;-71
2021/12/19 00:21:03;;;;;;;5.07;3.50;;;7.00;1.00;;;;;;5018715;28;20411;-73
2021/12/19 00:23:29;;;;;;;7.13;4.20;;;7.10;1.00;;;;;;5031686;28;20418;-72
2021/12/19 00:25:55;;;;;;;8.03;3.40;;;7.10;1.00;;;;;;5027693;28;20435;-73
2021/12/19 00:28:21;;;;;;;6.33;4.37;;;7.10;1.00;;;;;;5017144;28;20391;-72
2021/12/19 00:30:47;;;;;;;5.47;3.80;;;7.00;1.00;;;;;;5017005;28;20780;-73
2021/12/19 00:33:12;;;;;;;5.60;4.57;;;7.10;1.00;;;;;;5015990;28;20295;-72
2021/12/19 00:35:38;;;;;;;7.43;5.20;;;7.10;1.00;;;;;;5016924;28;20242;-72
2021/12/19 00:38:04;;;;;;;4.23;3.50;;;7.10;1.00;;;;;;5016763;28;20164;-73
2021/12/19 00:40:32;;;;;;;6.73;3.37;;;7.10;1.00;;;;;;5016629;28;20510;-73
2021/12/19 00:43:07;;;;;;;9.00;4.07;;;7.20;1.00;;;;;;5015892;28;20250;-72
2021/12/19 00:45:35;;;;;;;6.40;4.40;;;7.10;1.00;;;;;;5015507;28;20838;-71
2021/12/19 00:48:03;;;;;;;8.57;3.80;;;7.10;1.00;;;;;;5016707;28;20406;-71
2021/12/19 00:50:30;;;;;;;5.20;4.03;;;7.20;1.00;;;;;;5016461;28;20423;-73
2021/12/19 00:52:57;;;;;;;6.50;3.47;;;7.20;1.00;;;;;;5016902;28;20407;-73
2021/12/19 00:55:25;;;;;;;6.23;3.97;;;7.20;1.00;;;;;;5016634;28;20430;-71
2021/12/19 00:57:51;;;;;;;5.60;4.03;;;7.20;1.00;;;;;;5016312;28;20399;-73
2021/12/19 01:00:19;;;;;;;4.50;3.30;;;7.20;1.00;;;;;;5016434;28;20440;-70
2021/12/19 01:02:45;;;;;;;10.80;3.87;;;7.20;1.00;;;;;;5015499;28;20200;-73
2021/12/19 01:05:11;;;;;;;12.03;4.17;;;7.10;1.00;;;;;;5016131;28;20406;-70
2021/12/19 01:07:37;;;;;;;8.93;4.23;;;7.10;1.00;;;;;;5016352;28;20399;-72
2021/12/19 01:10:05;;;;;;;4.00;3.70;;;7.20;1.00;;;;;;5034280;28;20552;-72
2021/12/19 01:12:32;;;;;;;11.27;4.00;;;7.20;1.00;;;;;;5034704;28;20429;-72
2021/12/19 01:14:58;;;;;;;6.67;3.73;;;7.20;1.00;;;;;;5035787;28;20403;-70
2021/12/19 01:17:24;;;;;;;7.13;5.07;;;7.30;1.00;;;;;;5035761;28;20426;-73
2021/12/19 01:19:50;;;;;;;4.47;4.07;;;7.30;1.00;;;;;;5035774;28;20493;-74
2021/12/19 01:22:16;;;;;;;7.17;3.60;;;7.30;1.00;;;;;;5035004;28;20569;-71
2021/12/19 01:24:42;;;;;;;5.90;4.40;;;7.20;1.00;;;;;;5021413;28;20419;-71
2021/12/19 01:27:08;;;;;;;4.53;3.20;;;7.20;1.00;;;;;;5021743;28;20773;-73
2021/12/19 01:29:34;;;;;;;8.40;3.90;;;7.20;1.00;;;;;;5035679;28;20402;-73
2021/12/19 01:32:01;;;;;;;15.77;3.40;;;7.30;1.00;;;;;;5034940;28;20179;-73
2021/12/19 01:34:26;;;;;;;2.10;2.00;;;7.30;1.00;;;;;;5034140;28;20572;-74
2021/12/19 01:36:52;;;;;;;2.80;2.60;;;7.30;1.00;;;;;;5035437;28;20426;-71
2021/12/19 01:39:18;;;;;;;4.67;2.50;;;7.30;1.00;;;;;;5034589;28;20219;-72
2021/12/19 01:41:52;;;;;;;1.80;1.70;;;7.20;1.00;;;;;;5021950;28;20192;-73
2021/12/19 01:44:19;;;;;;;1.87;1.53;;;7.30;1.00;;;;;;5017857;28;20179;-72
2021/12/19 01:46:46;;;;;;;1.90;1.80;;;7.30;1.00;;;;;;5035231;28;20410;-73
2021/12/19 01:49:13;;;;;;;11.20;2.53;;;7.20;1.00;;;;;;5035361;28;20403;-73
2021/12/19 01:51:39;;;;;;;4.23;2.30;;;7.20;1.00;;;;;;5035252;28;20448;-73
2021/12/19 01:54:06;;;;;;;1.63;1.53;;;7.20;1.00;;;;;;5034127;28;20477;-71
2021/12/19 01:56:32;;;;;;;2.50;1.60;;;7.10;1.00;;;;;;5035105;28;20202;-73
2021/12/19 01:58:59;;;;;;;1.70;1.60;;;7.10;1.00;;;;;;5024132;28;20821;-74
2021/12/19 02:01:25;;;;;;;4.50;2.20;;;7.20;1.00;;;;;;5013952;28;20491;-73
2021/12/19 02:03:51;;;;;;;1.70;1.60;;;7.20;1.00;;;;;;5015341;28;20415;-70
2021/12/19 02:06:17;;;;;;;2.27;1.70;;;7.20;1.00;;;;;;5015271;28;20446;-72
2021/12/19 02:08:43;;;;;;;2.70;2.23;;;7.20;1.00;;;;;;5016269;28;20399;-70
2021/12/19 02:11:08;;;;;;;1.60;1.50;;;7.20;1.00;;;;;;5014867;28;20160;-74
2021/12/19 02:13:34;;;;;;;1.97;1.87;;;7.10;1.00;;;;;;5013045;28;20411;-70
2021/12/19 02:16:00;;;;;;;3.30;2.23;;;7.10;1.00;;;;;;5014784;28;20597;-74
2021/12/19 02:18:26;;;;;;;8.50;1.60;;;7.10;1.00;;;;;;5015341;28;20641;-72
2021/12/19 02:20:55;;;;;;;1.70;1.40;;;7.10;1.00;;;;;;5022714;28;20203;-74
2021/12/19 02:23:24;;;;;;;1.60;1.50;;;7.10;1.00;;;;;;5033725;28;20951;-71
2021/12/19 02:25:50;;;;;;;1.50;1.40;;;7.10;1.00;;;;;;5034501;28;20418;-70
2021/12/19 02:28:17;;;;;;;3.23;1.60;;;7.20;1.00;;;;;;5033008;28;20422;-69
2021/12/19 02:30:43;;;;;;;2.53;1.60;;;7.20;1.00;;;;;;5034008;28;20406;-70
2021/12/19 02:33:13;;;;;;;1.40;1.30;;;7.20;1.00;;;;;;5033572;28;20487;-72
2021/12/19 02:35:42;;;;;;;1.80;1.70;;;7.20;1.00;;;;;;5032973;28;20430;-70
2021/12/19 02:39:07;;;;;;;1.80;1.70;;;7.10;1.00;;;;;;5034405;28;20834;-73
2021/12/19 02:49:19;;;;;;;2.10;1.80;;;7.20;1.00;;;;;;5033676;28;20477;-70
2021/12/19 02:51:45;;;;;;;2.03;1.93;;;7.20;1.00;;;;;;5014374;28;20427;-73
2021/12/19 02:54:11;;;;;;;1.90;1.77;;;7.30;1.00;;;;;;5013529;28;20437;-71
2021/12/19 02:56:37;;;;;;;3.97;2.40;;;7.30;1.00;;;;;;5014091;28;21011;-71
2021/12/19 02:59:02;;;;;;;2.93;2.67;;;7.30;1.00;;;;;;5014385;28;20252;-72
2021/12/19 03:01:28;;;;;;;8.40;3.13;;;7.30;1.00;;;;;;5014198;28;20283;-69
2021/12/19 03:03:54;;;;;;;3.97;1.93;;;7.30;1.00;;;;;;5013194;28;20236;-73
2021/12/19 03:06:20;;;;;;;9.97;3.20;;;7.30;1.00;;;;;;5014033;28;20195;-73
2021/12/19 03:08:49;;;;;;;2.80;2.17;;;7.30;1.00;;;;;;5019542;28;20176;-74
2021/12/19 03:19:25;;;;;;;2.37;2.00;;;7.40;1.00;;;;;;5033919;28;20397;-72
2021/12/19 03:21:50;;;;;;;2.27;1.83;;;7.40;1.00;;;;;;5032097;28;20466;-74
2021/12/19 03:24:16;;;;;;;4.17;2.43;;;7.40;1.00;;;;;;5024446;28;20167;-72
2021/12/19 03:26:41;;;;;;;2.03;1.93;;;7.40;1.00;;;;;;5013593;28;20592;-70
2021/12/19 03:29:07;;;;;;;5.33;2.03;;;7.40;1.00;;;;;;5013749;28;20188;-71
2021/12/19 03:31:33;;;;;;;2.50;2.20;;;7.50;1.00;;;;;;5013847;28;20172;-70
2021/12/19 03:33:59;;;;;;;4.23;2.40;;;7.60;1.00;;;;;;5012814;28;20202;-70
2021/12/19 03:36:25;;;;;;;6.00;2.77;;;7.50;1.00;;;;;;5013521;28;20239;-72
2021/12/19 03:38:58;;;;;;;6.83;1.93;;;7.50;1.00;;;;;;5013615;28;20422;-71
2021/12/19 03:41:32;;;;;;;2.33;2.00;;;7.50;1.00;;;;;;5013541;28;20168;-72
2021/12/19 03:43:58;;;;;;;4.20;1.90;;;7.60;1.00;;;;;;5012422;28;20418;-73
2021/12/19 03:46:24;;;;;;;5.37;2.43;;;7.50;1.00;;;;;;5013419;28;20512;-71
2021/12/19 03:48:49;;;;;;;2.27;1.93;;;7.60;1.00;;;;;;5013437;28;20168;-71
2021/12/19 03:51:15;;;;;;;4.03;2.23;;;7.60;1.00;;;;;;5012100;28;20187;-73
2021/12/19 03:53:40;;;;;;;8.00;2.20;;;7.60;1.00;;;;;;5012542;28;20239;-72
2021/12/19 03:56:06;;;;;;;5.27;1.97;;;7.70;1.00;;;;;;5013314;28;20188;-71
2021/12/19 03:58:32;;;;;;;10.33;2.20;;;7.60;1.00;;;;;;5023450;28;20178;-71
2021/12/19 04:01:00;;;;;;;3.73;1.87;;;7.60;1.00;;;;;;5032623;28;20164;-71
2021/12/19 04:03:26;;;;;;;6.80;3.10;;;7.60;1.00;;;;;;5031537;28;20202;-74
2021/12/19 04:05:52;;;;;;;4.03;1.70;;;7.60;1.00;;;;;;5032918;28;20479;-71
2021/12/19 04:08:19;;;;;;;7.20;2.20;;;7.60;1.00;;;;;;5032646;28;20421;-72
2021/12/19 04:10:47;;;;;;;3.07;2.10;;;7.60;1.00;;;;;;5032839;28;20402;-73
2021/12/19 04:13:13;;;;;;;2.73;2.03;;;7.70;1.00;;;;;;5032002;28;20485;-71
2021/12/19 04:15:39;;;;;;;2.30;2.10;;;7.70;1.00;;;;;;5032963;28;20422;-72
2021/12/19 04:18:05;;;;;;;1.60;1.40;;;7.60;1.00;;;;;;5032874;28;20460;-71
2021/12/19 04:20:30;;;;;;;9.90;1.77;;;7.60;1.00;;;;;;5032900;28;20167;-73
2021/12/19 04:22:56;;;;;;;3.40;1.60;;;7.60;1.00;;;;;;5013421;28;20458;-71
2021/12/19 04:25:22;;;;;;;3.63;1.50;;;7.60;1.00;;;;;;5012889;28;20201;-71
2021/12/19 04:27:48;;;;;;;9.53;2.43;;;7.60;1.00;;;;;;5028851;28;20183;-73
2021/12/19 04:30:23;;;;;;;7.20;2.13;;;7.70;1.00;;;;;;5032954;28;20167;-70
2021/12/19 04:32:59;;;;;;;3.40;2.00;;;7.70;1.00;;;;;;5031857;28;20413;-73
2021/12/19 04:35:28;;;;;;;1.70;1.60;;;7.70;1.00;;;;;;5032563;28;20429;-71
2021/12/19 04:38:53;;;;;;;2.87;2.13;;;7.70;1.00;;;;;;5017096;28;20905;-71
2021/12/19 04:56:38;;;;;;;4.03;2.10;;;7.70;1.00;;;;;;5012623;28;20430;-71
2021/12/19 05:15:37;;;;;;;1.77;1.50;;;7.70;1.00;;;;;;5035929;28;20424;-71
2021/12/19 05:18:07;;;;;;;12.83;2.23;;;7.60;1.00;;;;;;5035732;28;20899;-73
2021/12/19 05:20:34;;;;;;;9.73;2.37;;;7.70;1.00;;;;;;5035854;28;20402;-71
2021/12/19 05:23:09;;;;;;;3.90;2.07;;;7.70;1.00;;;;;;5035037;28;20457;-73
2021/12/19 05:25:34;;;;;;;3.67;2.27;;;7.60;1.00;;;;;;5023758;28;20442;-71
2021/12/19 05:28:00;;;;;;;4.33;2.00;;;7.70;1.00;;;;;;5015924;28;20399;-73
2021/12/19 05:30:26;;;;;;;3.60;1.80;;;7.70;1.00;;;;;;5015899;28;20180;-72
2021/12/19 05:32:54;;;;;;;5.83;2.00;;;7.80;1.00;;;;;;5015151;28;20252;-71
2021/12/19 05:35:29;;;;;;;5.70;3.00;;;7.80;1.00;;;;;;5015480;28;20404;-71
2021/12/19 05:46:07;;;;;;;13.70;1.87;;;7.80;1.00;;;;;;5035325;28;20476;-71
2021/12/19 05:48:32;;;;;;;6.93;2.83;;;7.80;1.00;;;;;;5022786;28;20415;-71
2021/12/19 05:50:58;;;;;;;2.07;1.97;;;7.80;1.00;;;;;;5015664;28;20188;-73
2021/12/19 05:53:24;;;;;;;6.27;2.47;;;7.80;1.00;;;;;;5014408;28;20168;-73
2021/12/19 05:55:49;;;;;;;6.93;2.00;;;7.90;1.00;;;;;;5015278;28;20223;-70
2021/12/19 05:58:15;;;;;;;9.63;2.70;;;7.90;1.00;;;;;;5015569;28;20507;-73
2021/12/19 06:00:42;;;;;;;2.17;1.90;;;7.90;1.00;;;;;;5013947;28;21101;-73
2021/12/19 06:03:07;;;;;;;3.30;2.70;;;7.80;1.00;;;;;;5027497;28;20569;-74
2021/12/19 06:05:33;;;;;;;4.10;2.00;;;7.90;1.00;;;;;;5030261;28;20454;-70
2021/12/19 06:07:59;;;;;;;2.37;1.87;;;7.80;1.00;;;;;;5019950;28;20263;-73
2021/12/19 06:10:28;;;;;;;6.10;2.20;;;7.90;1.00;;;;;;5034526;28;20432;-74
2021/12/19 06:12:54;;;;;;;5.83;3.03;;;7.90;1.00;;;;;;5033942;28;20210;-74
2021/12/19 06:15:20;;;;;;;4.20;2.03;;;7.80;1.00;;;;;;5033089;28;20435;-70
2021/12/19 06:17:45;;;;;;;6.20;2.33;;;7.80;1.00;;;;;;5031595;28;20517;-73
2021/12/19 06:20:12;;;;;;;2.70;1.70;;;7.80;1.00;;;;;;5033495;28;20179;-74
2021/12/19 06:22:39;;;;;;;4.20;2.23;;;7.80;1.00;;;;;;5032487;28;20249;-70
2021/12/19 06:25:06;;;;;;;2.57;1.90;;;7.80;1.00;;;;;;5023463;28;20466;-74
2021/12/19 06:27:31;;;;;;;1.97;1.87;;;7.80;1.00;;;;;;5029536;28;20450;-74
2021/12/19 06:29:57;;;;;;;1.87;1.70;;;7.80;1.00;;;;;;5033627;28;20410;-74
2021/12/19 06:32:23;;;;;;;1.77;1.40;;;7.80;1.00;;;;;;5030750;28;20172;-72
2021/12/19 06:34:49;;;;;;;20.33;2.67;;;7.80;1.00;;;;;;5033452;28;20253;-71
2021/12/19 06:37:14;;;;;;;5.20;1.97;;;7.80;1.00;;;;;;5036788;28;20623;-71
2021/12/19 06:39:40;;;;;;;3.40;1.80;;;7.80;1.00;;;;;;5034323;28;20171;-73
2021/12/19 06:42:08;;;;;;;6.40;1.90;;;7.90;1.00;;;;;;5032214;28;20214;-72
2021/12/19 06:44:34;;;;;;;3.83;2.10;;;7.90;1.00;;;;;;5034361;28;20883;-74
2021/12/19 06:47:01;;;;;;;3.83;2.03;;;7.80;1.00;;;;;;5032326;28;20454;-75
2021/12/19 06:49:27;;;;;;;4.43;1.83;;;7.90;1.00;;;;;;5032270;28;20442;-75
2021/12/19 06:51:54;;;;;;;4.60;2.33;;;7.90;1.00;;;;;;5031271;28;20457;-75
2021/12/19 06:54:19;;;;;;;6.40;2.10;;;7.90;1.00;;;;;;5032633;28;20952;-74
2021/12/19 06:56:46;;;;;;;6.27;2.20;;;7.90;1.00;;;;;;5032602;28;20468;-74
2021/12/19 06:59:11;;;;;;;2.73;2.20;;;7.90;1.00;;;;;;5032329;28;20230;-74
2021/12/19 07:01:37;;;;;;;4.97;1.60;;;7.90;1.00;;;;;;5030894;28;20811;-70
2021/12/19 07:04:03;;;;;;;3.27;1.70;;;7.80;1.00;;;;;;5023932;28;20171;-70
2021/12/19 07:06:29;;;;;;;3.50;1.77;;;7.80;1.00;;;;;;5031854;28;20810;-74
2021/12/19 07:08:55;;;;;;;7.83;1.70;;;7.80;1.00;;;;;;5026729;28;20184;-71
2021/12/19 07:11:21;;;;;;;3.50;2.17;;;7.80;1.00;;;;;;5033319;28;20263;-74
2021/12/19 07:13:47;;;;;;;7.33;2.30;;;7.90;1.00;;;;;;5031287;28;20425;-71
2021/12/19 07:16:13;;;;;;;4.50;1.90;;;7.80;1.00;;;;;;5031983;28;20513;-73
2021/12/19 07:18:39;;;;;;;4.47;2.13;;;7.90;1.00;;;;;;5033309;28;20176;-72
2021/12/19 07:21:06;;;;;;;4.43;1.60;;;7.80;1.00;;;;;;5033664;28;20276;-75
2021/12/19 07:23:32;;;;;;;3.10;1.50;;;7.80;1.00;;;;;;5032812;28;20450;-75
2021/12/19 07:25:58;;;;;;;5.67;2.20;;;7.80;1.00;;;;;;5020481;28;20446;-74
2021/12/19 07:28:23;;;;;;;7.90;2.70;;;7.80;1.00;;;;;;5015455;28;20195;-71
2021/12/19 07:30:49;;;;;;;11.93;2.90;;;7.80;1.00;;;;;;5027829;28;20419;-71
2021/12/19 07:33:17;;;;;;;6.13;2.30;;;7.80;1.00;;;;;;5018183;28;20167;-75
2021/12/19 07:35:45;;;;;;;5.17;2.10;;;7.90;1.00;;;;;;5028231;28;20446;-74
2021/12/19 07:38:17;;;;;;;9.40;2.67;;;7.90;1.00;;;;;;5032870;28;20434;-72
2021/12/19 07:40:46;;;;;;;4.63;1.90;;;7.90;1.00;;;;;;5021299;28;20431;-75
2021/12/19 07:43:13;;;;;;;1.90;1.80;;;7.90;1.00;;;;;;5012596;28;20446;-74
2021/12/19 07:45:39;;;;;;;14.53;2.10;;;7.90;1.00;;;;;;5014654;28;20443;-73
2021/12/19 07:48:05;;;;;;;7.93;2.43;;;8.00;1.00;;;;;;5015992;28;20433;-74
2021/12/19 07:50:31;;;;;;;2.60;1.70;;;8.00;1.00;;;;;;5034473;28;20523;-75
2021/12/19 07:52:58;;;;;;;4.40;2.47;;;8.00;1.00;;;;;;5021334;28;20416;-71
2021/12/19 07:55:24;;;;;;;2.70;2.17;;;8.00;1.00;;;;;;5032818;28;20453;-75
2021/12/19 07:57:51;;;;;;;2.43;2.07;;;8.00;1.00;;;;;;5029852;28;20433;-72
2021/12/19 08:00:20;;;;;;;6.40;2.23;;;8.00;1.00;;;;;;5030483;28;20473;-72
2021/12/19 08:02:47;;;;;;;8.83;2.80;;;8.00;1.00;;;;;;5014887;28;20529;-71
2021/12/19 08:05:14;;;;;;;4.03;1.97;;;8.00;1.00;;;;;;5012979;28;20425;-74
2021/12/19 08:07:41;;;;;;;5.50;2.57;;;8.10;1.00;;;;;;5027587;28;20429;-74
2021/12/19 08:11:39;;;;;;;4.47;1.80;;;8.00;1.00;;;;;;5020373;28;20511;-74
2021/12/19 08:13:05;;;;;;;4.47;1.97;;;8.10;1.00;;;;;;5029997;28;20418;-74
2021/12/19 08:15:32;;;;;;;4.10;1.83;;;8.10;1.00;;;;;;5026115;28;20447;-74
2021/12/19 08:17:59;;;;;;;1.83;1.73;;;8.10;1.00;;;;;;5019196;28;20980;-74
2021/12/19 08:20:26;;;;;;;5.03;2.10;;;8.10;1.00;;;;;;5029710;28;20473;-74
2021/12/19 08:22:53;;;;;;;7.13;2.47;;;8.10;1.00;;;;;;5018047;28;21030;-70
2021/12/19 08:25:18;;;;;;;2.90;2.00;;;8.10;1.00;;;;;;5026461;28;20490;-74
2021/12/19 08:27:44;;;;;;;2.87;1.77;;;8.20;1.00;;;;;;5032154;28;20422;-75
2021/12/19 08:30:12;;;;;;;5.97;2.20;;;8.20;1.00;;;;;;5032725;28;20168;-74
2021/12/19 08:32:39;;;;;;;2.07;1.97;;;8.20;1.00;;;;;;5031846;28;20651;-71
2021/12/19 08:35:06;;;;;;;4.20;2.70;;;8.20;1.00;;;;;;5032593;28;20414;-74
2021/12/19 08:37:32;;;;;;;2.80;1.70;;;8.20;1.00;;;;;;5032643;28;20435;-74
2021/12/19 08:39:57;;;;;;;6.00;2.37;;;8.20;1.00;;;;;;5031132;28;20425;-75
2021/12/19 08:42:23;;;;;;;12.60;2.97;;;8.20;1.00;;;;;;5031834;28;20262;-72
2021/12/19 08:44:49;;;;;;;3.43;1.70;;;8.20;1.00;;;;;;5032357;28;20200;-70
2021/12/19 08:47:15;;;;;;;4.90;1.63;;;8.20;1.00;;;;;;5033122;28;20187;-70
2021/12/19 08:49:41;;;;;;;3.57;1.97;;;8.20;1.00;;;;;;5036406;28;20172;-72
2021/12/19 08:52:09;;;;;;;5.23;1.87;;;8.20;1.00;;;;;;5035523;28;20767;-74
2021/12/19 08:54:35;;;;;;;4.97;2.13;;;8.20;1.00;;;;;;5035032;28;20921;-74
2021/12/19 08:57:01;;;;;;;2.33;2.07;;;8.30;1.00;;;;;;5035962;28;20503;-72
2021/12/19 08:59:29;;;;;;;4.87;1.93;;;8.30;1.00;;;;;;5036276;28;20407;-72
2021/12/19 09:01:57;;;;;;;3.30;1.97;;;8.30;1.00;;;;;;5035910;28;20276;-70
2021/12/19 09:04:23;;;;;;;3.97;2.10;;;8.40;1.00;;;;;;5035347;28;20467;-72
2021/12/19 09:06:49;;;;;;;7.20;2.20;;;8.30;1.00;;;;;;5036011;28;20907;-74
2021/12/19 09:09:15;;;;;;;5.23;2.67;;;8.30;1.00;;;;;;5035908;28;20399;-71
2021/12/19 09:11:41;;;;;;;4.20;2.20;;;8.30;1.00;;;;;;5036063;28;20186;-74
2021/12/19 09:14:07;;;;;;;5.33;2.63;;;8.30;1.00;;;;;;5035055;28;20413;-71
2021/12/19 09:16:32;;;;;;;4.23;1.83;;;8.40;1.00;;;;;;5034888;28;20242;-71
2021/12/19 09:18:58;;;;;;;3.60;2.17;;;8.40;1.00;;;;;;5035753;28;20175;-72
2021/12/19 09:21:24;;;;;;;3.73;1.90;;;8.50;1.00;;;;;;5035544;28;20180;-75
2021/12/19 09:23:49;;;;;;;7.60;2.20;;;8.50;1.00;;;;;;5034847;28;20256;-74
2021/12/19 09:26:15;;;;;;;5.70;2.40;;;8.50;1.00;;;;;;5035565;28;20665;-74
2021/12/19 09:28:41;;;;;;;6.30;2.03;;;8.40;1.00;;;;;;5035680;28;20174;-71
2021/12/19 09:31:07;;;;;;;7.10;2.67;;;8.40;1.00;;;;;;5035492;28;20557;-74
2021/12/19 09:33:32;;;;;;;4.37;2.03;;;8.50;1.00;;;;;;5034513;28;20175;-75
2021/12/19 09:35:59;;;;;;;4.60;1.90;;;8.50;1.00;;;;;;5035247;28;20231;-71
2021/12/19 09:38:25;;;;;;;6.63;2.27;;;8.50;1.00;;;;;;5035610;28;20253;-74
2021/12/19 09:40:58;;;;;;;3.63;2.37;;;8.40;1.00;;;;;;5035539;28;20407;-71
2021/12/19 09:43:43;;;;;;;6.43;1.80;;;8.40;1.00;;;;;;5034107;28;21062;-74
2021/12/19 09:46:14;;;;;;;5.00;2.50;;;8.50;1.00;;;;;;5035443;28;20950;-74
2021/12/19 09:48:42;;;;;;;5.20;2.10;;;8.50;1.00;;;;;;5035367;28;20414;-71
2021/12/19 09:51:12;;;;;;;6.83;2.30;;;8.60;1.00;;;;;;5034354;28;20434;-71
2021/12/19 09:53:40;;;;;;;8.00;2.77;;;8.60;1.00;;;;;;5033531;28;20434;-71
2021/12/19 09:56:07;;;;;;;4.27;2.37;;;8.60;1.00;;;;;;5034699;28;20461;-74
2021/12/19 09:58:37;;;;;;;10.00;1.83;;;8.60;1.00;;;;;;5034555;28;20484;-74
2021/12/19 10:01:05;;;;;;;2.03;1.93;;;8.60;1.00;;;;;;5034847;28;20410;-75
2021/12/19 10:03:31;;;;;;;3.80;2.10;;;8.60;1.00;;;;;;5033459;28;20501;-74
2021/12/19 10:06:16;;;;;;;8.37;2.53;;;8.60;1.00;;;;;;5034397;28;20574;-74
2021/12/19 10:08:43;;;;;;;6.60;3.03;;;8.60;1.00;;;;;;5034904;28;21177;-74
2021/12/19 10:11:32;;;;;;;4.20;2.00;;;8.60;1.00;;;;;;5034603;28;20759;-76
2021/12/19 10:13:59;;;;;;;5.17;2.30;;;8.70;1.00;;;;;;5033367;28;20469;-76
2021/12/19 10:16:30;;;;;;;2.60;2.40;;;8.70;1.00;;;;;;5034526;28;20422;-76
2021/12/19 10:18:59;;;;;;;8.70;3.17;;;8.70;1.00;;;;;;5034928;28;20407;-74
2021/12/19 10:21:25;;;;;;;11.93;1.87;;;8.70;1.00;;;;;;5034241;28;20414;-74
2021/12/19 10:23:51;;;;;;;3.53;1.80;;;8.70;1.00;;;;;;5033243;28;20413;-73
2021/12/19 10:26:17;;;;;;;4.10;2.00;;;8.70;1.00;;;;;;5033111;28;20828;-75
2021/12/19 10:28:58;;;;;;;9.40;3.50;;;8.70;1.00;;;;;;5033708;28;20266;-71
2021/12/19 10:31:25;;;;;;;6.37;2.20;;;8.60;1.00;;;;;;5034253;28;20414;-71
2021/12/19 10:33:52;;;;;;;15.10;3.30;;;8.70;1.00;;;;;;5033242;28;20415;-74
2021/12/19 10:36:18;;;;;;;13.63;3.63;;;8.70;1.00;;;;;;5032990;28;20468;-70
2021/12/19 10:38:51;;;;;;;4.77;2.63;;;8.80;1.00;;;;;;5034159;28;20426;-74
2021/12/19 10:41:25;;;;;;;5.60;3.03;;;8.80;1.00;;;;;;5034136;28;20502;-76
2021/12/19 10:44:12;;;;;;;1.80;1.50;;;8.90;1.00;;;;;;5033076;28;20907;-73
2021/12/19 10:46:41;;;;;;;5.63;2.73;;;8.90;1.00;;;;;;5033957;28;20436;-74
2021/12/19 10:49:29;;;;;;;7.03;2.13;;;8.90;1.00;;;;;;5034009;28;20468;-72
2021/12/19 10:52:01;;;;;;;5.27;2.33;;;8.90;1.00;;;;;;5032309;28;20939;-72
2021/12/19 10:54:27;;;;;;;9.43;2.90;;;8.90;1.00;;;;;;5034227;28;20403;-70
2021/12/19 10:57:07;;;;;;;4.80;2.20;;;8.90;1.00;;;;;;5033780;28;20433;-75
2021/12/19 10:59:34;;;;;;;5.90;2.57;;;8.90;1.00;;;;;;5033186;28;20418;-75
2021/12/19 11:02:00;;;;;;;18.00;3.23;;;8.90;1.00;;;;;;5032784;28;20447;-74
2021/12/19 11:04:26;;;;;;;16.43;2.67;;;8.90;1.00;;;;;;5033560;28;20429;-75
2021/12/19 11:06:57;;;;;;;9.50;2.37;;;9.00;1.00;;;;;;5033781;28;20199;-75
2021/12/19 11:09:28;;;;;;;10.50;4.63;;;9.00;1.00;;;;;;5033292;28;20168;-75
2021/12/19 11:11:58;;;;;;;9.30;4.90;;;9.00;1.00;;;;;;5032483;28;20457;-69
2021/12/19 11:14:26;;;;;;;19.13;6.20;;;8.90;1.00;;;;;;5032993;28;20444;-73
2021/12/19 11:16:59;;;;;;;15.93;6.70;;;8.90;1.00;;;;;;5033137;28;20487;-75
2021/12/19 11:19:25;;;;;;;6.53;5.17;;;8.90;1.00;;;;;;5033342;28;20412;-70
2021/12/19 11:21:51;;;;;;;12.90;5.67;;;8.90;1.00;;;;;;5033202;28;20508;-73
2021/12/19 11:24:19;;;;;;;4.23;3.83;;;9.00;1.00;;;;;;5032654;28;20406;-71
2021/12/19 11:26:48;;;;;;;3.73;2.40;;;9.00;1.00;;;;;;5033423;28;20987;-71
2021/12/19 11:29:14;;;;;;;11.70;3.50;;;9.10;1.00;;;;;;5033232;28;20921;-74
2021/12/19 11:31:44;;;;;;;8.20;2.70;;;9.10;1.00;;;;;;5033289;28;20480;-70
2021/12/19 11:34:22;;;;;;;3.30;2.40;;;9.10;1.00;;;;;;5031684;28;20418;-75
2021/12/19 11:36:56;;;;;;;10.73;4.80;;;9.20;1.00;;;;;;5033353;28;20969;-71
2021/12/19 11:39:32;;;;;;;10.00;4.10;;;9.20;1.00;;;;;;5033055;28;20441;-74
2021/12/19 11:42:04;;;;;;;8.50;2.30;;;9.20;1.00;;;;;;5032120;28;20451;-74
2021/12/19 11:44:37;;;;;;;6.30;3.57;;;9.20;1.00;;;;;;5031973;28;20819;-72
2021/12/19 11:47:08;;;;;;;10.73;2.40;;;9.20;1.00;;;;;;5032822;28;20429;-75
2021/12/19 11:49:34;;;;;;;4.67;1.80;;;9.30;1.00;;;;;;5033187;28;20418;-75
2021/12/19 11:52:21;;;;;;;10.83;2.83;;;9.40;1.00;;;;;;5031269;28;20431;-73
2021/12/19 11:55:13;;;;;;;6.10;2.27;;;9.40;1.00;;;;;;5029901;28;20186;-75
2021/12/19 11:57:39;;;;;;;9.77;3.07;;;9.30;1.00;;;;;;5031818;28;20408;-73
2021/12/19 12:00:31;;;;;;;5.77;2.17;;;9.20;1.00;;;;;;5032835;28;20492;-70
2021/12/19 12:03:12;;;;;;;4.77;2.57;;;9.20;1.00;;;;;;5031954;28;20459;-72
2021/12/19 12:06:20;;;;;;;11.97;2.50;;;9.10;1.00;;;;;;5032917;28;20468;-74
2021/12/19 12:09:15;;;;;;;10.00;3.60;;;9.10;1.00;;;;;;5030663;28;20419;-70
2021/12/19 12:12:04;;;;;;;7.53;2.67;;;9.10;1.00;;;;;;5032513;28;20562;-71
2021/12/19 12:14:38;;;;;;;21.80;3.20;;;9.10;1.00;;;;;;5032506;28;20517;-71
2021/12/19 12:17:09;;;;;;;2.73;2.13;;;9.10;1.00;;;;;;5032919;28;20813;-73
2021/12/19 12:19:48;;;;;;;5.53;2.30;;;9.10;1.00;;;;;;5032792;28;20473;-74
2021/12/19 12:25:15;;;;;;;3.50;2.30;;;9.00;1.00;;;;;;5037211;28;20416;-73
2021/12/19 12:28:03;;;;;;;9.57;3.27;;;8.90;1.00;;;;;;5036460;28;20417;-75
2021/12/19 12:30:30;;;;;;;5.93;2.77;;;8.90;1.00;;;;;;5036411;28;20431;-70
2021/12/19 12:32:58;;;;;;;3.47;1.80;;;8.90;1.00;;;;;;5035370;28;20426;-70
2021/12/19 12:35:25;;;;;;;12.97;3.00;;;8.90;1.00;;;;;;5036633;28;20421;-70
2021/12/19 12:37:51;;;;;;;5.77;2.53;;;8.70;1.00;;;;;;5036137;28;20418;-72
2021/12/19 12:40:33;;;;;;;6.23;2.30;;;8.70;1.00;;;;;;5036524;28;20500;-70
2021/12/19 12:43:08;;;;;;;6.80;2.70;;;8.70;1.00;;;;;;5035244;28;20465;-71
2021/12/19 12:46:07;;;;;;;7.20;2.83;;;8.70;1.00;;;;;;5036357;28;20445;-75
2021/12/19 12:49:01;;;;;;;2.43;2.23;;;8.60;1.00;;;;;;5035709;28;20465;-76
2021/12/19 12:51:36;;;;;;;7.47;3.67;;;8.50;1.00;;;;;;5035153;28;20505;-74
2021/12/19 12:54:08;;;;;;;9.77;3.93;;;8.50;1.00;;;;;;5034150;28;20507;-70
2021/12/19 12:56:48;;;;;;;9.13;2.20;;;8.40;1.00;;;;;;5035885;28;20533;-75
2021/12/19 12:59:18;;;;;;;8.00;2.80;;;8.40;1.00;;;;;;5036092;28;20422;-76
2021/12/19 13:01:48;;;;;;;6.13;2.80;;;8.30;1.00;;;;;;5035673;28;20425;-71
2021/12/19 13:04:26;;;;;;;12.43;3.23;;;8.20;1.00;;;;;;5035670;28;20401;-75
2021/12/19 13:07:02;;;;;;;10.57;3.60;;;8.20;1.00;;;;;;5035217;28;20536;-73
2021/12/19 13:09:33;;;;;;;5.97;2.93;;;8.20;1.00;;;;;;5035950;28;20410;-70
2021/12/19 13:12:16;;;;;;;4.60;1.90;;;8.10;1.00;;;;;;5034992;28;20418;-74
2021/12/19 13:14:52;;;;;;;13.57;3.10;;;8.10;1.00;;;;;;5035691;28;20422;-75
2021/12/19 13:17:19;;;;;;;6.30;2.70;;;8.20;1.00;;;;;;5035644;28;20538;-69
2021/12/19 13:19:57;;;;;;;5.40;2.50;;;8.20;1.00;;;;;;5035702;28;20426;-73
2021/12/19 13:22:33;;;;;;;7.00;3.10;;;8.20;1.00;;;;;;5034390;28;20929;-74
2021/12/19 13:25:07;;;;;;;8.00;2.20;;;8.30;1.00;;;;;;5033521;28;20433;-75
2021/12/19 13:27:36;;;;;;;10.20;2.87;;;8.30;1.00;;;;;;5035985;28;20411;-70
2021/12/19 13:30:05;;;;;;;6.33;2.63;;;8.30;1.00;;;;;;5035526;28;20445;-69
2021/12/19 13:32:40;;;;;;;5.40;3.00;;;8.40;99.90;;;;;;5034830;28;20408;-75
2021/12/19 13:35:35;;;;;;;4.43;2.10;;;8.40;99.90;;;;;;5033972;28;20414;-70
2021/12/19 13:38:08;;;;;;;10.73;2.50;;;8.40;99.90;;;;;;5035644;28;20426;-69
2021/12/19 13:40:41;;;;;;;7.00;3.27;;;8.40;99.90;;;;;;5034925;28;20426;-70
2021/12/19 13:43:12;;;;;;;5.67;2.77;;;8.40;99.90;;;;;;5034256;28;20973;-74
2021/12/19 13:45:44;;;;;;;3.80;2.10;;;8.40;99.90;;;;;;5035255;28;20525;-69
2021/12/19 13:48:23;;;;;;;6.70;2.77;;;8.40;99.90;;;;;;5035560;28;20434;-70
2021/12/19 13:51:17;;;;;;;12.87;3.00;;;8.40;99.90;;;;;;5035041;28;20438;-69
2021/12/19 13:53:48;;;;;;;13.33;2.77;;;8.40;99.90;;;;;;5034186;28;20434;-70
2021/12/19 13:56:16;;;;;;;6.30;2.47;;;8.40;99.90;;;;;;5034623;28;20512;-69
2021/12/19 13:58:43;;;;;;;7.63;2.37;;;8.30;99.90;;;;;;5034865;28;20776;-72
2021/12/19 14:01:24;;;;;;;6.93;2.90;;;8.30;99.90;;;;;;5034314;28;20454;-70
2021/12/19 14:03:57;;;;;;;2.30;2.10;;;8.30;99.90;;;;;;5033969;28;20461;-69
2021/12/19 14:06:24;;;;;;;6.40;2.77;;;8.30;99.90;;;;;;5034999;28;20521;-70
2021/12/19 14:09:03;;;;;;;10.90;3.07;;;8.30;99.90;;;;;;5034914;28;20450;-75
2021/12/19 14:11:30;;;;;;;3.73;2.90;;;8.20;99.90;;;;;;5034758;28;20424;-70
2021/12/19 14:14:12;;;;;;;7.33;2.53;;;8.10;99.90;;;;;;5033817;28;20887;-69
2021/12/19 14:16:43;;;;;;;9.57;3.13;;;8.20;99.90;;;;;;5034745;28;20429;-74
2021/12/19 14:19:27;;;;;;;11.57;3.00;;;8.10;99.90;;;;;;5033976;28;20446;-70
2021/12/19 14:22:15;;;;;;;4.60;2.40;;;8.10;99.90;;;;;;5034244;28;20481;-75
2021/12/19 14:25:00;;;;;;;21.37;3.47;;;8.00;99.90;;;;;;5033464;28;20779;-69